createdAt,value
2024-05-09T00:01:33.217Z,2.20
2024-05-09T00:04:37.192Z,2.50
2024-05-09T00:07:41.127Z,2.50
2024-05-09T00:10:45.054Z,1.90
2024-05-09T00:13:48.998Z,2.10
2024-05-09T00:16:52.920Z,2.20
2024-05-09T00:19:56.793Z,2.60
2024-05-09T00:23:01.037Z,2.40
2024-05-09T00:26:05.573Z,2.70
2024-05-09T00:32:13.677Z,2.60
2024-05-09T00:35:18.706Z,2.60
2024-05-09T00:38:22.793Z,2.40
2024-05-09T00:41:26.667Z,2.40
2024-05-09T00:44:30.589Z,2.50
2024-05-09T00:47:35.094Z,2.30
2024-05-09T00:53:46.243Z,2.40
2024-05-09T00:56:50.603Z,2.10
2024-05-09T00:59:55.445Z,2.00
2024-05-09T01:02:59.424Z,3.30
2024-05-09T01:06:03.533Z,2.40
2024-05-09T01:09:07.390Z,2.30
2024-05-09T01:12:11.554Z,2.40
2024-05-09T01:15:15.738Z,2.70
2024-05-09T01:18:19.994Z,2.20
2024-05-09T01:21:24.075Z,2.20
2024-05-09T01:24:27.975Z,2.50
2024-05-09T01:27:31.988Z,2.80
2024-05-09T01:30:37.683Z,2.80
2024-05-09T01:33:43.260Z,2.10
2024-05-09T01:36:46.944Z,2.30
2024-05-09T01:39:50.716Z,2.20
2024-05-09T01:42:54.372Z,2.50
2024-05-09T01:45:58.045Z,2.40
2024-05-09T01:49:01.842Z,2.50
2024-05-09T01:52:05.715Z,2.20
2024-05-09T01:55:09.577Z,2.30
2024-05-09T01:58:13.388Z,2.30
2024-05-09T02:01:17.618Z,2.70
2024-05-09T02:04:21.711Z,2.30
2024-05-09T02:07:26.316Z,2.10
2024-05-09T02:10:32.767Z,2.40
2024-05-09T02:13:37.351Z,2.40
2024-05-09T02:16:41.158Z,2.50
2024-05-09T02:19:44.939Z,2.60
2024-05-09T02:22:48.842Z,2.40
2024-05-09T02:25:52.726Z,2.60
2024-05-09T02:28:56.674Z,2.50
2024-05-09T02:32:00.702Z,2.60
2024-05-09T02:35:05.520Z,2.40
2024-05-09T02:41:13.746Z,2.20
2024-05-09T02:44:17.688Z,2.10
2024-05-09T02:47:21.875Z,2.50
2024-05-09T02:50:33.973Z,2.30
2024-05-09T02:56:46.206Z,2.60
2024-05-09T02:59:50.286Z,2.20
2024-05-09T03:02:54.220Z,2.80
2024-05-09T03:05:58.122Z,2.40
2024-05-09T03:09:04.924Z,2.40
2024-05-09T03:12:09.853Z,2.20
2024-05-09T03:15:13.842Z,2.60
2024-05-09T03:18:17.753Z,2.70
2024-05-09T03:21:22.083Z,2.30
2024-05-09T03:24:25.999Z,2.80
2024-05-09T03:27:29.810Z,2.90
2024-05-09T03:30:40.844Z,2.70
2024-05-09T03:33:47.170Z,2.10
2024-05-09T03:36:51.194Z,2.40
2024-05-09T03:39:55.304Z,2.20
2024-05-09T03:42:59.110Z,2.00
2024-05-09T03:46:02.912Z,2.60
2024-05-09T03:49:07.314Z,3.10
2024-05-09T03:52:11.576Z,2.90
2024-05-09T03:55:15.368Z,2.20
2024-05-09T03:58:19.241Z,2.90
2024-05-09T04:01:25.564Z,3.00
2024-05-09T04:04:29.635Z,2.70
2024-05-09T04:07:33.904Z,2.70
2024-05-09T04:10:37.876Z,2.90
2024-05-09T04:13:42.146Z,3.00
2024-05-09T04:16:45.981Z,2.90
2024-05-09T04:19:49.797Z,2.10
2024-05-09T04:22:53.791Z,2.50
2024-05-09T04:25:57.612Z,2.30
2024-05-09T04:29:01.612Z,2.10
2024-05-09T04:32:06.144Z,2.70
2024-05-09T04:38:14.858Z,2.00
2024-05-09T04:41:20.115Z,2.00
2024-05-09T04:47:28.083Z,2.20
2024-05-09T04:50:37.026Z,2.00
2024-05-09T04:53:42.914Z,2.10
2024-05-09T04:56:46.769Z,2.80
2024-05-09T04:59:50.864Z,2.40
2024-05-09T05:02:54.852Z,2.50
2024-05-09T05:05:58.987Z,2.40
2024-05-09T05:09:03.426Z,2.20
2024-05-09T05:12:28.137Z,2.00
2024-05-09T05:15:32.045Z,2.00
2024-05-09T05:18:35.968Z,2.30
2024-05-09T05:21:39.807Z,2.40
2024-05-09T05:24:43.676Z,2.90
2024-05-09T05:27:47.416Z,2.30
2024-05-09T05:30:51.212Z,2.50
2024-05-09T05:33:55.005Z,2.00
2024-05-09T05:36:58.845Z,2.30
2024-05-09T05:40:03.254Z,2.50
2024-05-09T05:43:08.972Z,2.30
2024-05-09T05:46:13.018Z,2.40
2024-05-09T05:49:17.150Z,2.30
2024-05-09T05:52:21.057Z,2.60
2024-05-09T05:55:25.368Z,2.60
2024-05-09T05:58:29.216Z,2.50
2024-05-09T06:01:33.867Z,2.20
2024-05-09T06:04:38.101Z,2.60
2024-05-09T06:07:41.952Z,3.60
2024-05-09T06:10:46.036Z,2.40
2024-05-09T06:13:50.124Z,2.00
2024-05-09T06:16:56.929Z,2.50
2024-05-09T06:20:02.130Z,2.20
2024-05-09T06:23:06.758Z,2.50
2024-05-09T06:26:11.112Z,2.40
2024-05-09T06:29:14.957Z,2.30
2024-05-09T06:35:23.449Z,2.10
2024-05-09T06:38:30.700Z,2.30
2024-05-09T06:41:34.636Z,2.20
2024-05-09T06:44:38.605Z,2.00
2024-05-09T06:47:42.467Z,2.60
2024-05-09T06:50:46.829Z,2.70
2024-05-09T06:53:50.804Z,2.70
2024-05-09T06:56:54.905Z,2.60
2024-05-09T07:00:00.655Z,2.40
2024-05-09T07:03:14.837Z,2.60
2024-05-09T07:06:21.082Z,2.30
2024-05-09T07:09:24.898Z,2.00
2024-05-09T07:12:28.877Z,2.20
2024-05-09T07:15:32.831Z,2.40
2024-05-09T07:18:37.124Z,2.30
2024-05-09T07:24:44.872Z,1.90
2024-05-09T07:27:48.701Z,2.00
2024-05-09T07:30:52.523Z,1.90
2024-05-09T07:33:57.119Z,1.90
2024-05-09T07:37:02.012Z,1.90
2024-05-09T07:40:07.711Z,1.50
2024-05-09T07:43:12.972Z,1.40
2024-05-09T07:47:14.350Z,1.50
2024-05-09T07:53:34.647Z,1.90
2024-05-09T07:56:12.248Z,1.80
2024-05-09T07:59:16.297Z,1.50
2024-05-09T08:02:20.251Z,1.40
2024-05-09T08:05:24.285Z,1.90
2024-05-09T08:08:28.305Z,2.10
2024-05-09T08:11:32.595Z,1.80
2024-05-09T08:17:40.529Z,1.60
2024-05-09T08:20:48.735Z,1.80
2024-05-09T08:23:52.646Z,1.30
2024-05-09T08:26:56.497Z,1.80
2024-05-09T08:30:00.364Z,1.80
2024-05-09T08:33:05.859Z,1.80
2024-05-09T08:36:10.484Z,1.60
2024-05-09T08:39:14.300Z,1.60
2024-05-09T08:42:20.667Z,1.80
2024-05-09T08:45:24.769Z,1.40
2024-05-09T08:48:31.450Z,1.50
2024-05-09T08:51:35.535Z,2.20
2024-05-09T08:54:39.538Z,1.70
2024-05-09T08:57:44.763Z,1.90
2024-05-09T09:00:49.579Z,2.00
2024-05-09T09:03:55.168Z,1.70
2024-05-09T09:07:00.305Z,1.80
2024-05-09T09:10:08.545Z,1.50
2024-05-09T09:13:12.885Z,1.90
2024-05-09T09:16:17.309Z,1.70
2024-05-09T09:19:23.271Z,1.80
2024-05-09T09:22:27.515Z,2.50
2024-05-09T09:25:32.014Z,1.80
2024-05-09T09:28:40.577Z,1.70
2024-05-09T09:31:44.378Z,1.70
2024-05-09T09:34:48.430Z,1.80
2024-05-09T09:37:53.245Z,1.90
2024-05-09T09:40:57.998Z,1.90
2024-05-09T09:44:03.930Z,2.20
2024-05-09T09:47:09.496Z,1.90
2024-05-09T09:50:20.353Z,1.90
2024-05-09T09:53:33.215Z,2.10
2024-05-09T09:56:39.242Z,1.50
2024-05-09T09:59:46.852Z,1.80
2024-05-09T10:02:50.668Z,1.90
2024-05-09T10:05:55.044Z,1.60
2024-05-09T10:08:59.733Z,2.00
2024-05-09T10:12:11.122Z,1.80
2024-05-09T10:15:19.512Z,2.10
2024-05-09T10:18:29.573Z,2.10
2024-05-09T10:21:46.520Z,1.60
2024-05-09T10:24:52.736Z,1.90
2024-05-09T10:27:56.943Z,2.10
2024-05-09T10:31:15.979Z,1.90
2024-05-09T10:34:22.060Z,2.00
2024-05-09T10:37:31.682Z,1.90
2024-05-09T10:40:37.818Z,1.80
2024-05-09T10:43:42.046Z,1.60
2024-05-09T10:46:46.319Z,1.70
2024-05-09T10:49:50.727Z,1.70
2024-05-09T10:52:54.704Z,1.90
2024-05-09T10:56:01.651Z,1.60
2024-05-09T10:59:05.605Z,1.60
2024-05-09T11:02:10.900Z,1.80
2024-05-09T11:05:15.136Z,1.70
2024-05-09T11:08:23.505Z,1.80
2024-05-09T11:11:27.595Z,1.50
2024-05-09T11:14:31.862Z,1.80
2024-05-09T11:17:38.621Z,1.70
2024-05-09T11:20:42.762Z,1.70
2024-05-09T11:23:47.582Z,1.40
2024-05-09T11:26:51.481Z,1.80
2024-05-09T11:29:55.296Z,1.40
2024-05-09T11:32:59.263Z,2.00
2024-05-09T11:36:03.709Z,2.10
2024-05-09T11:42:11.351Z,1.50
2024-05-09T11:45:15.171Z,1.80
2024-05-09T11:48:19.275Z,1.80
2024-05-09T11:51:23.217Z,1.90
2024-05-09T11:54:27.109Z,2.00
2024-05-09T11:57:31.000Z,1.60
2024-05-09T12:00:37.419Z,1.70
2024-05-09T12:03:42.018Z,1.80
2024-05-09T12:06:46.571Z,1.70
2024-05-09T12:09:50.995Z,1.70
2024-05-09T12:12:54.957Z,2.00
2024-05-09T12:15:59.047Z,1.60
2024-05-09T12:19:03.012Z,1.70
2024-05-09T12:22:06.950Z,1.40
2024-05-09T12:25:10.952Z,1.60
2024-05-09T12:28:15.983Z,1.70
2024-05-09T12:31:19.968Z,1.60
2024-05-09T12:37:28.659Z,1.60
2024-05-09T12:40:36.785Z,1.50
2024-05-09T12:43:42.634Z,1.70
2024-05-09T12:46:46.671Z,1.50
2024-05-09T12:49:50.515Z,1.20
2024-05-09T12:52:54.371Z,1.50
2024-05-09T12:56:02.226Z,1.50
2024-05-09T12:59:07.630Z,1.40
2024-05-09T13:02:12.391Z,1.60
2024-05-09T13:05:16.691Z,1.50
2024-05-09T13:08:21.138Z,1.10
2024-05-09T13:14:28.622Z,1.60
2024-05-09T13:17:32.928Z,1.20
2024-05-09T13:20:37.385Z,1.30
2024-05-09T13:23:41.486Z,1.50
2024-05-09T13:26:45.403Z,1.70
2024-05-09T13:29:49.212Z,1.30
2024-05-09T13:32:54.647Z,1.40
2024-05-09T13:35:58.896Z,1.40
2024-05-09T13:39:03.737Z,1.90
2024-05-09T13:42:07.593Z,1.10
2024-05-09T13:45:11.501Z,1.70
2024-05-09T13:48:15.654Z,1.40
2024-05-09T13:51:20.601Z,1.50
2024-05-09T13:54:24.414Z,1.60
2024-05-09T13:57:28.585Z,1.50
2024-05-09T14:03:51.702Z,1.20
2024-05-09T14:06:55.770Z,1.30
2024-05-09T14:09:59.659Z,1.90
2024-05-09T14:13:03.654Z,1.60
2024-05-09T14:19:12.737Z,1.50
2024-05-09T14:25:20.497Z,1.30
2024-05-09T14:28:26.179Z,1.40
2024-05-09T14:31:30.285Z,1.40
2024-05-09T14:37:39.795Z,1.30
2024-05-09T14:40:44.319Z,1.80
2024-05-09T14:43:48.636Z,1.40
2024-05-09T14:46:52.582Z,1.40
2024-05-09T14:53:00.479Z,1.30
2024-05-09T14:56:04.946Z,1.30
2024-05-09T14:59:09.352Z,1.10
2024-05-09T15:02:13.433Z,1.30
2024-05-09T15:05:17.540Z,1.40
2024-05-09T15:08:21.589Z,1.10
2024-05-09T15:11:25.506Z,1.60
2024-05-09T15:14:29.410Z,1.30
2024-05-09T15:17:33.224Z,1.50
2024-05-09T15:20:37.848Z,1.60
2024-05-09T15:23:41.917Z,1.40
2024-05-09T15:26:45.679Z,1.70
2024-05-09T15:29:49.482Z,1.60
2024-05-09T15:32:53.380Z,1.50
2024-05-09T15:35:57.319Z,1.70
2024-05-09T15:39:01.325Z,1.70
2024-05-09T15:42:05.141Z,1.50
2024-05-09T15:45:09.571Z,1.20
2024-05-09T15:48:14.293Z,1.50
2024-05-09T15:51:18.212Z,1.40
2024-05-09T15:54:22.976Z,1.30
2024-05-09T15:57:28.393Z,1.40
2024-05-09T16:00:38.002Z,1.60
2024-05-09T16:03:45.484Z,1.40
2024-05-09T16:06:49.695Z,1.40
2024-05-09T16:09:53.724Z,1.40
2024-05-09T16:12:57.595Z,1.50
2024-05-09T16:16:01.998Z,1.50
2024-05-09T16:19:06.152Z,1.50
2024-05-09T16:22:10.187Z,1.50
2024-05-09T16:25:14.309Z,1.60
2024-05-09T16:28:20.215Z,1.60
2024-05-09T16:31:24.989Z,1.80
2024-05-09T16:34:29.670Z,1.40
2024-05-09T16:37:33.542Z,1.70
2024-05-09T16:40:40.315Z,1.80
2024-05-09T16:43:46.143Z,1.30
2024-05-09T16:49:54.419Z,1.30
2024-05-09T16:52:58.294Z,1.40
2024-05-09T16:56:02.944Z,1.70
2024-05-09T16:59:06.838Z,1.60
2024-05-09T17:02:10.950Z,1.30
2024-05-09T17:05:17.155Z,1.50
2024-05-09T17:08:21.330Z,1.40
2024-05-09T17:11:25.178Z,1.20
2024-05-09T17:14:28.963Z,1.80
2024-05-09T17:17:32.930Z,1.60
2024-05-09T17:20:37.763Z,1.90
2024-05-09T17:23:42.039Z,2.20
2024-05-09T17:26:45.840Z,3.20
2024-05-09T17:29:49.765Z,2.80
2024-05-09T17:32:53.649Z,3.00
2024-05-09T17:35:57.522Z,3.40
2024-05-09T17:39:01.405Z,3.30
2024-05-09T17:42:05.636Z,2.80
2024-05-09T17:45:09.438Z,3.00
2024-05-09T17:48:13.833Z,3.30
2024-05-09T17:51:17.772Z,2.50
2024-05-09T17:54:21.579Z,2.90
2024-05-09T17:57:26.128Z,2.30
2024-05-09T18:00:37.571Z,2.50
2024-05-09T18:03:44.816Z,2.50
2024-05-09T18:06:49.068Z,2.50
2024-05-09T18:09:52.965Z,2.10
2024-05-09T18:12:56.947Z,2.30
2024-05-09T18:16:01.070Z,2.50
2024-05-09T18:19:05.136Z,2.10
2024-05-09T18:22:09.163Z,1.90
2024-05-09T18:25:13.746Z,2.00
2024-05-09T18:28:18.085Z,1.90
2024-05-09T18:34:26.018Z,1.80
2024-05-09T18:37:30.040Z,1.30
2024-05-09T18:40:36.740Z,2.00
2024-05-09T18:43:45.316Z,2.00
2024-05-09T18:49:56.221Z,2.40
2024-05-09T18:53:00.110Z,13.70
2024-05-09T18:56:04.603Z,12.90
2024-05-09T18:59:08.551Z,5.70
2024-05-09T19:02:12.772Z,4.20
2024-05-09T19:08:20.546Z,4.30
2024-05-09T19:11:24.521Z,3.70
2024-05-09T19:14:28.329Z,4.40
2024-05-09T19:17:32.358Z,4.60
2024-05-09T19:20:37.252Z,4.20
2024-05-09T19:23:47.145Z,4.00
2024-05-09T19:26:56.358Z,3.70
2024-05-09T19:30:00.121Z,4.10
2024-05-09T19:33:04.327Z,3.40
2024-05-09T19:36:09.017Z,3.90
2024-05-09T19:39:12.934Z,3.50
2024-05-09T19:42:16.747Z,3.40
2024-05-09T19:45:21.173Z,3.40
2024-05-09T19:48:25.295Z,3.40
2024-05-09T19:51:29.199Z,3.80
2024-05-09T19:54:33.035Z,4.30
2024-05-09T19:57:36.979Z,4.20
2024-05-09T20:00:43.081Z,3.80
2024-05-09T20:03:48.516Z,3.40
2024-05-09T20:06:53.051Z,3.40
2024-05-09T20:09:56.936Z,3.70
2024-05-09T20:13:00.887Z,3.50
2024-05-09T20:16:06.604Z,3.30
2024-05-09T20:19:10.631Z,2.80
2024-05-09T20:22:14.721Z,3.40
2024-05-09T20:25:18.919Z,3.40
2024-05-09T20:28:23.083Z,3.20
2024-05-09T20:31:27.129Z,3.30
2024-05-09T20:34:30.999Z,4.30
2024-05-09T20:37:35.116Z,4.40
2024-05-09T20:40:39.895Z,5.80
2024-05-09T20:43:44.538Z,5.10
2024-05-09T20:46:48.350Z,5.90
2024-05-09T20:49:52.299Z,5.50
2024-05-09T20:52:56.007Z,4.70
2024-05-09T20:55:59.793Z,4.60
2024-05-09T20:59:03.697Z,4.60
2024-05-09T21:02:07.663Z,4.80
2024-05-09T21:05:11.911Z,5.20
2024-05-09T21:08:16.194Z,4.60
2024-05-09T21:11:22.794Z,4.80
2024-05-09T21:14:26.753Z,3.60
2024-05-09T21:17:30.712Z,3.90
2024-05-09T21:20:35.277Z,4.20
2024-05-09T21:23:39.513Z,4.70
2024-05-09T21:26:43.334Z,4.60
2024-05-09T21:29:47.134Z,5.30
2024-05-09T21:32:51.011Z,6.60
2024-05-09T21:35:55.069Z,5.30
2024-05-09T21:38:58.874Z,4.60
2024-05-09T21:42:02.716Z,4.20
2024-05-09T21:45:07.339Z,4.70
2024-05-09T21:48:12.810Z,4.00
2024-05-09T21:51:16.923Z,4.80
2024-05-09T21:54:20.793Z,5.10
2024-05-09T21:57:24.608Z,5.10
2024-05-09T22:00:35.459Z,5.30
2024-05-09T22:03:42.068Z,5.20
2024-05-09T22:06:46.105Z,5.60
2024-05-09T22:09:49.922Z,5.90
2024-05-09T22:12:54.149Z,5.10
2024-05-09T22:15:58.090Z,4.80
2024-05-09T22:19:02.049Z,4.70
2024-05-09T22:22:05.997Z,4.80
2024-05-09T22:25:10.075Z,5.40
2024-05-09T22:28:16.157Z,5.50
2024-05-09T22:31:20.064Z,5.90
2024-05-09T22:34:24.248Z,5.90
2024-05-09T22:37:28.794Z,5.70
2024-05-09T22:40:42.258Z,5.70
2024-05-09T22:43:51.874Z,5.40
2024-05-09T22:46:55.752Z,3.70
2024-05-09T22:49:59.599Z,4.50
2024-05-09T22:53:03.718Z,4.60
2024-05-09T22:56:08.035Z,4.40
2024-05-09T22:59:11.855Z,4.90
2024-05-09T23:02:15.810Z,4.00
2024-05-09T23:05:19.801Z,4.20
2024-05-09T23:08:23.929Z,3.50
2024-05-09T23:11:27.826Z,4.40
2024-05-09T23:14:31.730Z,4.50
2024-05-09T23:17:35.603Z,4.50
2024-05-09T23:20:40.325Z,3.30
2024-05-09T23:23:44.593Z,3.80
2024-05-09T23:26:48.310Z,4.30
2024-05-09T23:29:52.424Z,4.60
2024-05-09T23:32:56.362Z,4.60
2024-05-09T23:36:00.249Z,3.80
2024-05-09T23:39:05.291Z,3.70
2024-05-09T23:42:09.101Z,3.80
2024-05-09T23:45:13.128Z,4.10
2024-05-09T23:48:17.024Z,3.80
2024-05-09T23:51:20.951Z,4.10
2024-05-09T23:54:24.766Z,4.70
2024-05-09T23:57:28.563Z,4.10
